Latest Coastal Weather Observations for Cooktown

IDQ60701

Issued at 5:42 am EST Wednesday 29 July 2015 (issued every 10 minutes, with the page automatically refreshed every 10 minutes)

About coastal observations | Map of coastal stations | Coastal observations for QLD | Marine services | Other Formats
Station Details ID: 031209 Name: COOKTOWN AIRPORT Lat: -15.45 Lon: 145.19 Height: 4.8 m
Data from the previous 72 hours. | See also: Recent months at Cooktown
Date/Time
EST
Temp

°C
Wind Pressure Rain
since 9am
mm
Weather Cloud Vis
km
Sea
Height
m
Swell
Dir
 
Speed
knots
Gust
knots
hPa Trend Height
m
Period
s
Dir
29/05:34am 21.8 SSE 11 17 1018.8 - 2.6 - Partly cloudy 10 - - - -
29/05:30am 21.7 SSE 10 17 1018.7 - 2.6 - Partly cloudy 10 - - - -
29/05:01am 21.4 SE 13 19 1018.6 - 2.6 - Partly cloudy 10 - - - -
29/05:00am 21.4 SE 14 25 1018.7 - 2.6 - Partly cloudy 10 - - - -
29/04:51am 21.5 SE 15 25 1018.7 - 2.6 - Partly cloudy 10 - - - -
29/04:49am 21.4 SE 14 25 1018.7 - 2.6 - Partly cloudy 10 - - - -
29/04:43am 21.5 SE 15 25 1018.7 - 2.6 - Partly cloudy 10 - - - -
29/04:33am 21.9 SE 12 20 1018.7 - 2.4 - Partly cloudy 5 - - - -
29/04:30am 22.2 SE 12 20 1018.6 - 2.4 - Partly cloudy 7 - - - -
29/04:27am 22.5 SE 13 23 1018.5 - 2.0 - Partly cloudy 10 - - - -
29/04:23am 22.3 SE 13 23 1018.6 - 2.0 - Partly cloudy 8 - - - -
29/04:00am 22.8 SE 11 16 1018.5 - 2.0 - Partly cloudy 10 - - - -
29/03:37am 22.8 SE 12 18 1018.5 - 2.0 - Partly cloudy 9 - - - -
29/03:35am 22.8 SE 12 18 1018.5 - 2.0 - Partly cloudy 10 - - - -
29/03:30am 23.0 SE 12 18 1018.4 - 2.0 - Partly cloudy 10 - - - -
29/03:22am 23.2 SE 11 17 1018.4 - 2.0 - Partly cloudy 10 - - - -
29/03:00am 23.3 SE 13 21 1018.4 - 2.0 - Cloudy 10 - - - -
29/02:30am 23.2 ESE 12 17 1018.7 - 2.0 - Partly cloudy 10 - - - -
29/02:00am 23.1 SE 11 16 1018.9 - 2.0 - Partly cloudy 10 - - - -
29/01:58am 23.0 SE 10 16 1018.9 - 2.0 - Partly cloudy 10 - - - -
29/01:43am 23.1 SE 14 22 1019.1 - 2.0 - Partly cloudy 10 - - - -
29/01:31am 23.1 SE 12 21 1019.2 - 2.0 - Partly cloudy 10 - - - -
29/01:30am 23.1 SE 12 21 1019.2 - 2.0 - Partly cloudy 10 - - - -
29/01:19am 22.9 SE 10 15 1019.3 - 2.0 - Partly cloudy 10 - - - -
29/01:10am 22.8 SE 11 17 1019.4 - 2.0 - Partly cloudy 10 - - - -
29/01:00am 22.7 SE 10 18 1019.5 - 2.0 - Partly cloudy 10 - - - -
29/12:56am 22.7 SE 10 16 1019.5 - 2.0 - Partly cloudy 10 - - - -
29/12:30am 22.7 SE 11 19 1019.9 - 2.0 - Partly cloudy 10 - - - -
29/12:00am 22.8 SE 11 21 1020.1 - 2.0 - Partly cloudy 10 - - - -
 
Date/Time
EST
Temp

°C
Wind Pressure Rain
since 9am
mm
Weather Cloud Vis
km
Sea
Height
m
Swell
Dir
 
Speed
knots
Gust
knots
hPa Trend Height
m
Period
s
Dir
28/11:30pm 22.6 SE 11 16 1020.2 - 2.0 - Partly cloudy 10 - - - -
28/11:00pm 22.7 SE 12 19 1020.5 - 2.0 - Partly cloudy 10 - - - -
28/10:37pm 22.5 SE 10 17 1020.7 - 2.0 - Partly cloudy 9 - - - -
28/10:30pm 22.5 SE 11 17 1020.7 - 2.0 - Partly cloudy 9 - - - -
28/10:00pm 22.6 SE 11 18 1020.8 - 2.0 - Partly cloudy 9 - - - -
28/09:37pm 22.5 SE 12 21 1020.7 - 2.0 - Partly cloudy 10 - - - -
28/09:30pm 22.3 SE 11 17 1020.7 - 2.0 - Partly cloudy 10 - - - -
28/09:03pm 21.3 SE 10 15 1020.6 - 2.0 - Partly cloudy 9 - - - -
28/09:00pm 21.3 SE 11 17 1020.6 - 2.0 - Cloudy 7 - - - -
28/08:49pm 21.6 SE 14 23 1020.6 - 1.8 - Partly cloudy 4 - - - -
28/08:39pm 22.4 SE 13 22 1020.3 - 1.4 - Partly cloudy 4 - - - -
28/08:35pm 22.5 SE 11 17 1020.3 - 0.8 - Partly cloudy 5 - - - -
28/08:30pm 22.7 SE 10 16 1020.1 - 0.4 - Partly cloudy 7 - - - -
28/08:00pm 23.1 SE 10 17 1019.8 - 0.2 - Partly cloudy 10 - - - -
28/07:30pm 22.9 SE 10 16 1019.4 - 0.2 - Partly cloudy 10 - - - -
28/07:27pm 22.9 SE 10 16 1019.5 - 0.2 - Partly cloudy 10 - - - -
28/07:09pm 23.0 SE 8 14 1019.3 - 0.2 - Partly cloudy 10 - - - -
28/07:00pm 22.9 SE 11 18 1019.2 - 0.2 - Partly cloudy 9 - - - -
28/06:30pm 23.5 SE 11 17 1018.7 - 0.2 - Partly cloudy 10 - - - -
28/06:00pm 23.7 SE 11 17 1018.6 - 0.2 - Mostly cloudy 10 - - - -
28/05:30pm 24.1 SE 13 20 1018.4 - 0.2 - Partly cloudy 10 - - - -
28/05:24pm 24.3 SE 14 22 1018.3 - 0.2 - Partly cloudy 10 - - - -
28/05:00pm 24.6 SE 11 22 1018.0 - 0.2 - Cloudy 10 - - - -
28/04:30pm 25.1 SE 10 19 1017.8 - 0.2 - Partly cloudy 10 - - - -
28/04:00pm 25.4 ESE 14 20 1017.7 - 0.2 - Partly cloudy 10 - - - -
28/03:37pm 25.5 SE 14 23 1017.7 - 0.2 - Partly cloudy 10 - - - -
28/03:30pm 25.8 ESE 14 19 1017.7 - 0.2 - Partly cloudy 10 - - - -
28/03:23pm 25.7 SE 12 19 1017.7 - 0.2 - Partly cloudy 10 - - - -
28/03:14pm 25.4 ESE 14 22 1017.7 - 0.2 - Partly cloudy 10 - - - -
28/03:04pm 25.7 ESE 12 20 1017.7 - 0.2 - Partly cloudy 10 - - - -
28/03:00pm 25.8 ESE 13 19 1017.7 R 0.2 Fine Mostly cloudy 35 - - - -
28/02:30pm 25.5 SE 15 23 1017.9 - 0.2 - Partly cloudy 10 - - - -
28/02:27pm 25.6 SE 14 23 1017.9 - 0.2 - Partly cloudy 10 - - - -
28/02:00pm 25.3 ESE 13 22 1018.2 - 0.2 - Partly cloudy 10 - - - -
28/01:30pm 25.7 ESE 15 22 1018.5 - 0.2 - Partly cloudy 10 - - - -
28/01:14pm 25.4 ESE 15 25 1018.6 - 0.2 - Partly cloudy 10 - - - -
28/01:01pm 26.1 ESE 15 23 1018.7 - 0.2 - Partly cloudy 10 - - - -
28/01:00pm 26.5 ESE 16 25 1018.7 - 0.2 - Partly cloudy 10 - - - -
28/12:40pm 24.8 SE 15 27 1018.9 - 0.2 - Partly cloudy 10 - - - -
28/12:36pm 24.9 ESE 15 22 1018.9 - 0.2 - Partly cloudy 10 - - - -
28/12:30pm 24.9 SE 14 21 1019.0 - 0.2 - Partly cloudy 10 - - - -
28/12:00pm 25.0 SE 15 22 1019.1 - 0.2 - Cloudy 10 - - - -
28/11:49am 25.0 SE 15 26 1019.2 - 0.2 - Partly cloudy 10 - - - -
28/11:30am 25.2 SE 14 21 1019.4 - 0.2 - Partly cloudy 10 - - - -
28/11:00am 25.6 SE 14 21 1020.0 - 0.2 - Partly cloudy 10 - - - -
28/10:46am 25.8 SE 13 21 1019.9 - 0.2 - Partly cloudy 10 - - - -
28/10:30am 25.5 SE 13 21 1020.0 - 0.0 - Partly cloudy 10 - - - -
28/10:00am 24.8 SE 13 23 1020.0 - 0.0 - Partly cloudy 10 - - - -
28/09:30am 25.7 SE 13 20 1019.9 - 0.0 - Partly cloudy 10 - - - -
28/09:00am 24.8 SE 14 23 1019.7 S 2.8 Haze Mostly clear 30 - - - -
28/08:36am 24.8 ESE 15 25 1019.6 - 2.8 - Partly cloudy 10 - - - -
28/08:30am 24.6 ESE 16 25 1019.6 - 2.8 - Partly cloudy 10 - - - -
28/08:00am 24.2 SE 13 20 1019.4 - 2.8 - Partly cloudy 10 - - - -
28/07:30am 23.6 ESE 12 20 1019.3 - 2.8 - Partly cloudy 10 - - - -
28/07:00am 23.0 SE 12 17 1019.1 - 2.8 - Partly cloudy 10 - - - -
28/06:30am 22.9 ESE 11 16 1018.7 - 2.8 - Partly cloudy 10 - - - -
28/06:00am 22.6 ESE 9 13 1018.4 - 2.8 - Mostly clear 10 - - - -
28/05:39am 22.6 SE 9 15 1018.3 - 2.8 - Partly cloudy 10 - - - -
28/05:30am 22.2 SE 7 12 1018.3 - 2.8 - Partly cloudy 10 - - - -
28/05:05am 22.5 SE 10 15 1018.3 - 2.8 - Partly cloudy 10 - - - -
28/05:00am 22.5 SE 10 16 1018.2 - 2.8 - Partly cloudy 10 - - - -
28/04:40am 22.5 SE 9 13 1018.2 - 2.8 - Partly cloudy 10 - - - -
28/04:37am 22.4 SE 9 16 1018.2 - 2.8 - Partly cloudy 10 - - - -
28/04:30am 22.4 SE 9 16 1018.2 - 2.8 - Partly cloudy 10 - - - -
28/04:19am 22.4 SE 9 13 1018.2 - 2.8 - Partly cloudy 10 - - - -
28/04:00am 22.1 SE 10 14 1018.1 - 2.8 - Partly cloudy 10 - - - -
28/03:55am 22.1 SE 10 16 1018.2 - 2.8 - Partly cloudy 10 - - - -
28/03:50am 22.2 SE 9 16 1018.2 - 2.8 - Partly cloudy 10 - - - -
28/03:40am 22.3 SE 11 19 1018.3 - 2.8 - Partly cloudy 4 - - - -
28/03:36am 22.4 SE 10 19 1018.5 - 2.6 - Partly cloudy 5 - - - -
28/03:30am 22.8 SE 10 16 1018.3 - 2.0 - Partly cloudy 10 - - - -
28/03:00am 22.5 SSE 9 14 1018.6 - 2.0 - Mostly cloudy 10 - - - -
28/02:30am 22.6 SE 8 15 1018.8 - 2.0 - Partly cloudy 10 - - - -
28/02:06am 22.8 SE 10 15 1018.9 - 2.0 - Partly cloudy 10 - - - -
28/02:00am 22.6 SE 9 15 1019.0 - 2.0 - Partly cloudy 10 - - - -
28/01:49am 22.7 SE 9 14 1019.1 - 2.0 - Partly cloudy 10 - - - -
28/01:30am 22.6 SE 9 15 1019.3 - 2.0 - Partly cloudy 10 - - - -
28/01:17am 22.3 SSE 9 13 1019.4 - 2.0 - Partly cloudy 10 - - - -
28/01:00am 22.1 SE 8 12 1019.5 - 2.0 - Partly cloudy 10 - - - -
28/12:30am 22.3 SE 11 18 1019.6 - 2.0 - Partly cloudy 6 - - - -
28/12:00am 22.4 SE 11 16 1019.8 - 1.8 - Cloudy 9 - - - -
 
Date/Time
EST
Temp

°C
Wind Pressure Rain
since 9am
mm
Weather Cloud Vis
km
Sea
Height
m
Swell
Dir
 
Speed
knots
Gust
knots
hPa Trend Height
m
Period
s
Dir
27/11:59pm 22.3 SE 11 20 1019.8 - 1.8 - Partly cloudy 9 - - - -
27/11:42pm 22.4 ESE 9 13 1019.9 - 1.6 - Partly cloudy 5 - - - -
27/11:40pm 22.4 SE 9 14 1019.9 - 1.6 - Partly cloudy 5 - - - -
27/11:30pm 22.6 SE 7 12 1019.9 - 1.4 - Partly cloudy 10 - - - -
27/11:00pm 22.5 SE 9 13 1020.1 - 1.4 - Partly cloudy 10 - - - -
27/10:55pm 22.4 SE 8 12 1020.1 - 1.4 - Partly cloudy 10 - - - -
27/10:50pm 22.3 SE 9 15 1020.2 - 1.4 - Partly cloudy 10 - - - -
27/10:40pm 22.2 ESE 9 13 1020.3 - 1.4 - Partly cloudy 4 - - - -
27/10:35pm 22.2 ESE 8 12 1020.4 - 0.6 - Partly cloudy 5 - - - -
27/10:30pm 22.3 SE 8 12 1020.3 - 0.0 - Partly cloudy 9 - - - -
27/10:00pm 23.3 SE 10 17 1020.3 - 0.0 - Partly cloudy 10 - - - -
27/09:30pm 23.2 SE 10 16 1020.4 - 0.0 - Partly cloudy 10 - - - -
27/09:00pm 23.2 SE 9 15 1020.3 - 0.0 - Partly cloudy 10 - - - -
27/08:30pm 23.3 SE 8 15 1020.1 - 0.0 - Partly cloudy 10 - - - -
27/08:00pm 23.4 SE 9 15 1019.7 - 0.0 - Partly cloudy 10 - - - -
27/07:30pm 23.3 SE 9 13 1019.5 - 0.0 - Partly cloudy 10 - - - -
27/07:00pm 23.3 SE 9 14 1019.2 - 0.0 - Partly cloudy 10 - - - -
27/06:00pm 23.7 SE 10 16 1018.5 - 0.0 - Mostly clear 10 - - - -
27/05:30pm 24.3 SSE 11 16 1018.3 - 0.0 - Partly cloudy 10 - - - -
27/05:00pm 24.4 SE 11 19 1018.2 - 0.0 - Partly cloudy 10 - - - -
27/04:30pm 24.8 SE 12 17 1017.9 - 0.0 - Partly cloudy 10 - - - -
27/04:00pm 24.8 SE 11 17 1017.7 - 0.0 - Partly cloudy 10 - - - -
27/03:30pm 25.3 SE 12 21 1017.6 - 0.0 - Partly cloudy 10 - - - -
27/03:00pm 25.4 SE 13 22 1017.5 F 0.0 Fine Mostly clear 30 - - - -
27/02:46pm 25.8 SE 14 23 1017.6 - 0.0 - Partly cloudy 10 - - - -
27/02:30pm 25.0 SE 14 21 1017.7 - 0.0 - Partly cloudy 10 - - - -
27/02:00pm 25.7 SE 12 18 1018.0 - 0.0 - Cloudy 10 - - - -
27/01:46pm 26.8 SE 12 17 1018.3 - 0.0 - Partly cloudy 10 - - - -
27/01:30pm 26.6 ESE 15 23 1018.5 - 0.0 - Partly cloudy 10 - - - -
27/01:00pm 26.5 ESE 14 23 1018.8 - 0.0 - Partly cloudy 10 - - - -
27/12:30pm 26.7 SE 13 20 1019.1 - 0.0 - Partly cloudy 10 - - - -
27/12:00pm 27.2 SE 14 20 1019.4 - 0.0 - Partly cloudy 10 - - - -
27/11:30am 26.7 SE 13 21 1019.6 - 0.0 - Partly cloudy 10 - - - -
27/11:00am 26.0 SE 13 21 1020.1 - 0.0 - Partly cloudy 10 - - - -
27/10:30am 25.9 SE 13 23 1020.2 - 0.0 - - 10 - - - -
27/10:00am 25.4 ESE 12 17 1020.5 - 0.0 - Partly cloudy 10 - - - -
27/09:30am 24.9 SE 12 20 1020.6 - 0.0 - Partly cloudy 10 - - - -
27/09:00am 23.9 SE 11 18 1020.3 R 3.2 Fine Partly cloudy 30 - - - -
27/08:48am 23.6 SE 9 15 1020.2 - 3.2 - Partly cloudy 10 - - - -
27/08:30am 23.5 SSE 9 15 1020.1 - 3.2 - Partly cloudy 10 - - - -
27/08:29am 23.4 SSE 9 15 1020.1 - 3.2 - Partly cloudy 10 - - - -
27/08:03am 22.9 SE 8 14 1020.1 - 3.2 - Partly cloudy 10 - - - -
27/08:00am 22.9 SE 8 14 1020.0 - 3.2 - Partly cloudy 10 - - - -
27/07:48am 22.8 SE 7 11 1019.9 - 3.2 - Partly cloudy 10 - - - -
27/07:37am 22.7 SE 7 11 1019.8 - 3.2 - Partly cloudy 10 - - - -
27/07:30am 22.7 SE 7 10 1019.7 - 3.2 - Partly cloudy 10 - - - -
27/07:23am 22.7 SE 7 12 1019.6 - 3.2 - Partly cloudy 10 - - - -
27/07:00am 22.4 SSE 7 10 1019.3 - 3.2 - Partly cloudy 10 - - - -
27/06:30am 22.3 SE 8 11 1019.2 - 3.2 - - 10 - - - -
27/06:00am 22.1 SE 5 8 1018.9 - 3.2 - Partly cloudy 10 - - - -
27/05:30am 21.9 ESE 5 7 1018.8 - 3.2 - Partly cloudy 10 - - - -
27/05:00am 21.9 SSE 5 7 1018.6 - 3.2 - - 10 - - - -
27/04:30am 22.3 SE 6 9 1018.6 - 3.2 - - 10 - - - -
27/04:00am 22.2 SE 6 9 1018.7 - 3.2 - Partly cloudy 10 - - - -
27/03:30am 22.3 SE 5 8 1018.7 - 3.2 - Partly cloudy 10 - - - -
27/03:00am 22.4 SE 6 9 1018.7 - 3.2 - - 10 - - - -
27/02:30am 22.3 SE 5 8 1018.9 - 3.2 - - 10 - - - -
27/02:00am 22.4 SE 4 7 1019.0 - 3.2 - Partly cloudy 10 - - - -
27/01:30am 22.4 SE 5 7 1019.2 - 3.2 - Partly cloudy 10 - - - -
27/01:00am 21.9 SE 4 5 1019.5 - 3.2 - Partly cloudy 10 - - - -
27/12:30am 22.0 SSE 3 4 1019.8 - 3.2 - - 10 - - - -
27/12:02am 22.4 SSE 4 8 1019.9 - 3.2 - Partly cloudy 10 - - - -
27/12:00am 22.4 SSE 5 7 1020.0 - 3.2 - Cloudy 10 - - - -
 
Date/Time
EST
Temp

°C
Wind Pressure Rain
since 9am
mm
Weather Cloud Vis
km
Sea
Height
m
Swell
Dir
 
Speed
knots
Gust
knots
hPa Trend Height
m
Period
s
Dir
26/11:30pm 22.5 SSE 5 7 1020.1 - 3.2 - Partly cloudy 10 - - - -
26/11:00pm 22.2 S 4 6 1020.2 - 3.0 - Partly cloudy 10 - - - -
26/10:30pm 22.2 SE 5 7 1020.4 - 3.0 - Partly cloudy 10 - - - -
26/10:00pm 22.2 SE 6 8 1020.4 - 3.0 - Partly cloudy 10 - - - -
26/09:53pm 22.2 SE 5 8 1020.5 - 3.0 - Partly cloudy 10 - - - -
26/09:30pm 22.0 SSE 6 9 1020.4 - 3.0 - Partly cloudy 10 - - - -
26/09:25pm 22.0 SSE 7 11 1020.4 - 3.0 - Partly cloudy 10 - - - -
26/09:00pm 22.0 SSE 6 11 1020.4 - 2.8 - Cloudy 3 - - - -
26/08:30pm 22.1 SE 8 11 1020.3 - 2.0 - Cloudy 3 - - - -
26/08:04pm 22.3 ESE 6 10 1019.9 - 0.6 - Partly cloudy 5 - - - -
26/08:00pm 22.4 SE 7 13 1019.8 - 0.6 - Partly cloudy 10 - - - -
26/07:53pm 22.4 SE 8 13 1019.8 - 0.6 - Partly cloudy 10 - - - -
26/07:43pm 22.5 SE 9 13 1019.6 - 0.6 - Partly cloudy 10 - - - -
26/07:30pm 22.5 SSE 8 14 1019.4 - 0.6 - Partly cloudy 4 - - - -
26/07:11pm 22.6 ESE 5 8 1019.2 - 0.4 - Partly cloudy 5 - - - -
26/07:00pm 22.8 SE 5 8 1019.2 - 0.4 - Partly cloudy 10 - - - -
26/06:57pm 22.7 SE 5 8 1019.1 - 0.4 - Partly cloudy 10 - - - -
26/06:53pm 22.8 SE 6 8 1019.0 - 0.4 - Partly cloudy 10 - - - -
26/06:39pm 22.7 SSE 5 9 1018.9 - 0.4 - Partly cloudy 10 - - - -
26/06:38pm 22.7 SSE 5 7 1018.9 - 0.4 - Partly cloudy 10 - - - -
26/06:30pm 22.6 SSE 6 10 1018.8 - 0.4 - Partly cloudy 10 - - - -
26/06:01pm 22.5 SE 4 5 1018.5 - 0.4 - Partly cloudy 10 - - - -
26/06:00pm 22.5 SE 4 5 1018.5 - 0.4 - Cloudy 10 - - - -
26/05:30pm 22.2 SE 5 8 1018.2 - 0.4 - Partly cloudy 10 - - - -
26/05:28pm 22.3 SE 5 8 1018.2 - 0.4 - Partly cloudy 10 - - - -
26/05:27pm 22.3 SE 5 8 1018.2 - 0.4 - Partly cloudy 10 - - - -
26/05:02pm 22.3 SE 8 12 1018.0 - 0.4 - Partly cloudy 5 - - - -
26/05:01pm 22.3 SE 8 13 1018.0 - 0.4 - Partly cloudy 6 - - - -
26/05:00pm 22.3 SE 8 13 1018.0 - 0.4 - Partly cloudy 6 - - - -
26/04:56pm 22.4 SE 7 13 1017.9 - 0.4 - Partly cloudy 7 - - - -
26/04:48pm 22.5 SE 6 10 1017.8 - 0.4 - Partly cloudy 5 - - - -
26/04:41pm 22.6 SE 7 11 1017.7 - 0.4 - Partly cloudy 5 - - - -
26/04:30pm 22.7 SE 9 12 1017.6 - 0.4 - Partly cloudy 10 - - - -
26/04:23pm 22.8 SE 8 13 1017.6 - 0.4 - Partly cloudy 10 - - - -
26/04:06pm 22.6 SE 9 14 1017.5 - 0.4 - Partly cloudy 3 - - - -
26/04:00pm 22.7 SE 9 16 1017.4 - 0.2 - Partly cloudy 2 - - - -
26/03:38pm 23.2 SE 12 17 1017.1 - 0.0 - Partly cloudy 5 - - - -
26/03:30pm 23.8 ESE 12 18 1016.9 - 0.0 - Partly cloudy 8 - - - -
26/03:00pm 25.1 SE 11 17 1016.7 - 0.0 - Cloudy 10 - - - -
26/02:30pm 25.8 SE 13 19 1016.6 - 0.0 - Partly cloudy 10 - - - -
26/02:00pm 26.4 ESE 13 19 1016.6 - 0.0 - Partly cloudy 10 - - - -
26/01:30pm 27.4 SE 15 23 1017.1 - 0.0 - Partly cloudy 10 - - - -
26/01:06pm 26.6 ESE 14 21 1017.1 - 0.0 - Partly cloudy 10 - - - -
26/01:00pm 26.9 ESE 15 21 1017.1 - 0.0 - Partly cloudy 10 - - - -
26/12:30pm 26.5 SE 14 21 1017.3 - 0.0 - Partly cloudy 10 - - - -
26/12:00pm 25.7 SE 14 21 1017.7 - 0.0 - Cloudy 10 - - - -
26/11:45am 26.4 SE 15 25 1017.9 - 0.0 - Partly cloudy 10 - - - -
26/11:43am 26.4 SE 16 25 1017.9 - 0.0 - Partly cloudy 10 - - - -
26/11:30am 26.4 ESE 16 25 1018.2 - 0.0 - Partly cloudy 10 - - - -
26/11:00am 26.1 ESE 16 22 1018.6 - 0.0 - Partly cloudy 10 - - - -
26/10:39am 25.6 SE 14 21 1018.9 - 0.0 - Partly cloudy 10 - - - -
26/10:30am 25.5 ESE 13 19 1018.9 - 0.0 - Partly cloudy 10 - - - -
26/10:00am 24.8 ESE 13 19 1019.0 - 0.0 - Partly cloudy 10 - - - -
26/09:38am 25.0 SE 10 16 1019.1 - 0.0 - Partly cloudy 10 - - - -
26/09:30am 24.8 SE 10 15 1019.2 - 0.0 - Partly cloudy 10 - - - -
26/09:02am 24.6 SE 10 17 1019.0 - 0.0 - Partly cloudy 10 - - - -
26/09:00am 24.7 SE 10 17 1018.9 - 0.0 - Cloudy 10 - - - -
26/08:36am 24.0 SE 9 15 1018.8 - 0.0 - Partly cloudy 10 - - - -
26/08:33am 24.0 SE 9 15 1018.7 - 0.0 - Partly cloudy 10 - - - -
26/08:30am 23.9 SE 9 16 1018.7 - 0.0 - Partly cloudy 10 - - - -
26/08:00am 23.7 SE 9 15 1018.4 - 0.0 - Partly cloudy 10 - - - -
26/07:44am 23.7 SE 8 16 1018.1 - 0.0 - Partly cloudy 10 - - - -
26/07:32am 23.2 SE 8 12 1018.1 - 0.0 - Partly cloudy 10 - - - -
26/07:30am 23.2 SE 9 14 1018.1 - 0.0 - Partly cloudy 10 - - - -
26/07:00am 23.1 SE 8 12 1017.9 - 0.0 - Partly cloudy 10 - - - -
26/06:30am 23.0 SE 9 14 1017.7 - 0.0 - Partly cloudy 10 - - - -
26/06:00am 23.1 SE 8 14 1017.5 - 0.0 - Cloudy 10 - - - -

Other Formats:

Comma delimited format used in spreadsheet applications
http://www.bom.gov.au/fwo/IDQ60701/IDQ60701.95283.axf

JavaScript Object Notation format (JSON) in row-major order
http://www.bom.gov.au/fwo/IDQ60701/IDQ60701.95283.json